Time;durP1;ratioP1;P1;durP2;ratioP2;P2;SDS_P1;SDS_P2;PMS_P1;PMS_P2;Temp;Humidity;BMP_temperature;BMP_pressure;BME280_temperature;BME280_humidity;BME280_pressure;Samples;Min_cycle;Max_cycle;Signal;HPM_P1;HPM_P2
2023/04/09 00:01:46;;;;;;;78.65;44.17;;;7.90;99.90;;;;;;5063659;28;20054;-75
2023/04/09 00:04:12;;;;;;;73.82;44.00;;;7.90;99.90;;;;;;5056623;28;20581;-75
2023/04/09 00:06:37;;;;;;;72.47;44.88;;;7.90;99.90;;;;;;5061242;28;20057;-75
2023/04/09 00:09:03;;;;;;;71.40;45.28;;;8.00;99.90;;;;;;5059515;28;20091;-75
2023/04/09 00:11:29;;;;;;;69.57;43.65;;;8.00;99.90;;;;;;5061918;28;20059;-75
2023/04/09 00:13:56;;;;;;;73.50;44.90;;;8.00;99.90;;;;;;5065263;28;20044;-75
2023/04/09 00:16:21;;;;;;;68.70;44.30;;;8.00;99.90;;;;;;5062229;28;20072;-75
2023/04/09 00:18:47;;;;;;;71.25;45.03;;;8.00;99.90;;;;;;5061945;28;20057;-75
2023/04/09 00:21:15;;;;;;;74.82;44.47;;;8.00;99.90;;;;;;5065003;28;20094;-75
2023/04/09 00:23:41;;;;;;;74.73;46.97;;;8.00;99.90;;;;;;5057833;28;20059;-75
2023/04/09 00:26:06;;;;;;;84.07;47.95;;;8.10;99.90;;;;;;5052000;28;20044;-75
2023/04/09 00:28:32;;;;;;;81.13;45.47;;;8.10;99.90;;;;;;5062954;28;20175;-75
2023/04/09 00:30:58;;;;;;;68.85;43.22;;;8.10;99.90;;;;;;5056781;28;20496;-74
2023/04/09 00:33:24;;;;;;;70.63;45.67;;;8.10;99.90;;;;;;5064680;28;20139;-75
2023/04/09 00:35:50;;;;;;;65.82;42.45;;;8.10;99.90;;;;;;5056836;28;20053;-75
2023/04/09 00:38:17;;;;;;;69.28;42.83;;;8.10;99.90;;;;;;5062461;28;20041;-75
2023/04/09 00:40:42;;;;;;;67.95;42.72;;;8.10;99.90;;;;;;5057630;28;20136;-75
2023/04/09 00:43:08;;;;;;;67.03;43.38;;;8.10;99.90;;;;;;5060949;28;20773;-75
2023/04/09 00:45:35;;;;;;;69.60;42.50;;;8.10;99.90;;;;;;5059058;28;20615;-75
2023/04/09 00:48:01;;;;;;;65.57;40.63;;;8.10;99.90;;;;;;5060232;28;20131;-75
2023/04/09 00:50:26;;;;;;;69.95;44.63;;;8.10;99.90;;;;;;5060580;28;20094;-75
2023/04/09 00:52:52;;;;;;;64.32;42.22;;;8.10;99.90;;;;;;5060530;28;20048;-75
2023/04/09 00:55:20;;;;;;;66.20;41.15;;;8.10;99.90;;;;;;5066682;28;20055;-75
2023/04/09 00:57:45;;;;;;;65.22;41.65;;;8.20;99.90;;;;;;5077292;28;20144;-75
2023/04/09 01:00:12;;;;;;;59.33;41.38;;;8.10;99.90;;;;;;5065069;28;20086;-75
2023/04/09 01:02:38;;;;;;;71.13;42.45;;;8.20;99.90;;;;;;5056625;28;20095;-75
2023/04/09 01:05:04;;;;;;;60.30;41.22;;;8.20;99.90;;;;;;5056858;28;20078;-75
2023/04/09 01:07:57;;;;;;;81.43;41.25;;;8.20;99.90;;;;;;5058834;28;20048;-75
2023/04/09 01:10:54;;;;;;;66.55;42.00;;;8.20;99.90;;;;;;5058774;28;20063;-75
2023/04/09 01:13:59;;;;;;;63.92;42.05;;;8.20;99.90;;;;;;5053967;28;20057;-75
2023/04/09 01:16:27;;;;;;;61.70;41.15;;;8.20;99.90;;;;;;5063548;28;20044;-75
2023/04/09 01:19:01;;;;;;;70.13;42.03;;;8.10;99.90;;;;;;5061305;28;20478;-75
2023/04/09 01:21:32;;;;;;;65.45;41.90;;;8.10;99.90;;;;;;5065853;28;20044;-75
2023/04/09 01:23:58;;;;;;;75.82;45.72;;;8.10;99.90;;;;;;5064488;28;20040;-75
2023/04/09 01:26:56;;;;;;;62.10;39.83;;;8.10;99.90;;;;;;5054536;28;20045;-75
2023/04/09 01:29:24;;;;;;;72.13;44.33;;;8.20;99.90;;;;;;5059303;28;20052;-75
2023/04/09 01:31:50;;;;;;;;;;;8.10;99.90;;;;;;5065979;28;20135;-75
2023/04/09 01:34:18;;;;;;;67.82;41.10;;;8.10;99.90;;;;;;5057019;28;20796;-75
2023/04/09 01:36:49;;;;;;;74.00;45.53;;;8.10;99.90;;;;;;5061020;28;20094;-75
2023/04/09 01:39:15;;;;;;;66.07;41.10;;;8.00;99.90;;;;;;5064311;28;20052;-75
2023/04/09 01:41:42;;;;;;;67.60;41.97;;;8.00;99.90;;;;;;5060462;28;20752;-75
2023/04/09 01:44:08;;;;;;;66.78;40.70;;;7.90;99.90;;;;;;5055463;28;20133;-75
2023/04/09 01:46:36;;;;;;;63.40;42.00;;;7.90;99.90;;;;;;5059674;28;20049;-75
2023/04/09 01:49:02;;;;;;;67.60;42.47;;;7.80;99.90;;;;;;5064466;28;20136;-75
2023/04/09 01:51:30;;;;;;;56.30;40.20;;;7.70;99.90;;;;;;5055952;28;20049;-75
2023/04/09 01:53:56;;;;;;;70.47;44.67;;;7.70;99.90;;;;;;5056018;28;20391;-75
2023/04/09 01:56:21;;;;;;;60.25;41.92;;;7.60;99.90;;;;;;5063668;28;20043;-75
2023/04/09 01:58:47;;;;;;;64.13;41.78;;;7.60;99.90;;;;;;5058469;28;20057;-75
2023/04/09 02:01:27;;;;;;;63.72;41.83;;;7.60;99.90;;;;;;5066141;28;20041;-75
2023/04/09 02:04:01;;;;;;;62.75;42.80;;;7.60;99.90;;;;;;5057233;28;20061;-75
2023/04/09 02:06:47;;;;;;;64.45;44.03;;;7.50;99.90;;;;;;5066153;28;20053;-75
2023/04/09 02:09:15;;;;;;;65.28;42.65;;;7.50;99.90;;;;;;5052071;28;20600;-75
2023/04/09 02:11:43;;;;;;;73.63;46.03;;;7.40;99.90;;;;;;5052513;28;20049;-75
2023/04/09 02:14:11;;;;;;;71.78;44.33;;;7.30;99.90;;;;;;5065124;28;20137;-75
2023/04/09 02:16:38;;;;;;;65.38;43.00;;;7.30;99.90;;;;;;5068895;28;20044;-75
2023/04/09 02:19:05;;;;;;;72.43;43.42;;;7.30;99.90;;;;;;5069427;28;20092;-75
2023/04/09 02:21:31;;;;;;;73.43;46.45;;;7.30;99.90;;;;;;5066078;28;20135;-75
2023/04/09 02:23:57;;;;;;;69.13;43.47;;;7.20;99.90;;;;;;5066174;28;20865;-75
2023/04/09 02:26:23;;;;;;;72.28;45.75;;;7.20;99.90;;;;;;5063557;28;20044;-74
2023/04/09 02:28:50;;;;;;;74.22;47.13;;;7.20;99.90;;;;;;5068131;28;20080;-75
2023/04/09 02:31:16;;;;;;;75.85;48.17;;;7.20;99.90;;;;;;5051427;28;20045;-75
2023/04/09 02:33:41;;;;;;;81.88;48.80;;;7.20;99.90;;;;;;5065547;28;20582;-75
2023/04/09 02:36:12;;;;;;;86.20;44.13;;;7.20;99.90;;;;;;5062178;28;20122;-75
2023/04/09 02:38:42;;;;;;;62.65;41.28;;;7.20;99.90;;;;;;5063910;28;20455;-74
2023/04/09 02:41:08;;;;;;;63.22;40.10;;;7.30;99.90;;;;;;5060403;28;20133;-75
2023/04/09 02:43:33;;;;;;;69.05;41.30;;;7.30;99.90;;;;;;5068071;28;20490;-75
2023/04/09 02:45:59;;;;;;;66.00;41.42;;;7.30;99.90;;;;;;5049718;28;20056;-75
2023/04/09 02:48:25;;;;;;;69.47;41.72;;;7.30;99.90;;;;;;5057167;28;20140;-75
2023/04/09 02:50:50;;;;;;;67.65;41.63;;;7.30;99.90;;;;;;5062510;28;20059;-75
2023/04/09 02:53:16;;;;;;;72.55;43.38;;;7.30;99.90;;;;;;5067877;28;20863;-75
2023/04/09 02:55:42;;;;;;;68.03;43.67;;;7.40;99.90;;;;;;5066517;28;20062;-75
2023/04/09 02:58:07;;;;;;;73.55;45.45;;;7.30;99.90;;;;;;5066870;28;20053;-75
2023/04/09 03:00:33;;;;;;;77.85;46.50;;;7.40;99.90;;;;;;5051135;28;20071;-75
2023/04/09 03:02:59;;;;;;;71.28;43.80;;;7.30;99.90;;;;;;5066583;28;20091;-75
2023/04/09 03:05:24;;;;;;;73.85;46.33;;;7.30;99.90;;;;;;5059198;28;20088;-74
2023/04/09 03:07:50;;;;;;;71.78;43.70;;;7.40;99.90;;;;;;5064127;28;20413;-75
2023/04/09 03:10:16;;;;;;;75.85;45.08;;;7.40;99.90;;;;;;5059601;28;20083;-73
2023/04/09 03:12:43;;;;;;;75.80;44.22;;;7.40;99.90;;;;;;5056862;28;20066;-73
2023/04/09 03:15:09;;;;;;;69.60;43.65;;;7.40;99.90;;;;;;5067686;28;20848;-73
2023/04/09 03:17:35;;;;;;;78.00;45.70;;;7.50;99.90;;;;;;5060792;28;20028;-73
2023/04/09 03:20:01;;;;;;;85.47;48.63;;;7.50;99.90;;;;;;5064254;28;20048;-74
2023/04/09 03:22:27;;;;;;;70.22;44.63;;;7.50;99.90;;;;;;5065930;28;20139;-74
2023/04/09 03:24:53;;;;;;;82.55;48.10;;;7.50;99.90;;;;;;5060899;28;20499;-74
2023/04/09 03:27:18;;;;;;;82.00;49.35;;;7.50;99.90;;;;;;5066199;28;20151;-74
2023/04/09 03:29:44;;;;;;;81.82;50.13;;;7.40;99.90;;;;;;5058406;28;20426;-74
2023/04/09 03:32:10;;;;;;;79.82;51.28;;;7.40;99.90;;;;;;5063360;28;20120;-74
2023/04/09 03:34:35;;;;;;;79.85;48.38;;;7.30;99.90;;;;;;5065181;28;20044;-74
2023/04/09 03:37:01;;;;;;;79.05;50.20;;;7.30;99.90;;;;;;5066550;28;20413;-74
2023/04/09 03:39:29;;;;;;;83.00;48.20;;;7.30;99.90;;;;;;5066952;28;20044;-74
2023/04/09 03:41:57;;;;;;;75.68;47.17;;;7.30;99.90;;;;;;5067410;28;20076;-74
2023/04/09 03:44:23;;;;;;;83.32;48.22;;;7.30;99.90;;;;;;5062441;28;20049;-73
2023/04/09 03:46:49;;;;;;;75.72;46.38;;;7.30;99.90;;;;;;5054587;28;20052;-74
2023/04/09 03:49:15;;;;;;;79.30;49.22;;;7.30;99.90;;;;;;5053954;28;20059;-75
2023/04/09 03:51:40;;;;;;;77.95;46.15;;;7.30;99.90;;;;;;5049646;28;20056;-74
2023/04/09 03:54:06;;;;;;;106.93;52.30;;;7.30;99.90;;;;;;5058236;28;20405;-74
2023/04/09 03:56:31;;;;;;;80.18;52.67;;;7.40;99.90;;;;;;5065338;28;20052;-75
2023/04/09 03:58:57;;;;;;;92.50;49.40;;;7.40;99.90;;;;;;5065145;28;20150;-75
2023/04/09 04:01:23;;;;;;;80.43;49.35;;;7.40;99.90;;;;;;5065945;28;20040;-75
2023/04/09 04:03:48;;;;;;;81.57;49.80;;;7.40;99.90;;;;;;5023738;28;1071103;-74
2023/04/09 04:06:14;;;;;;;76.28;48.55;;;7.40;99.90;;;;;;5065718;28;20068;-74
2023/04/09 04:08:40;;;;;;;81.20;48.05;;;7.40;99.90;;;;;;5045778;28;20127;-74
2023/04/09 04:11:05;;;;;;;73.20;48.25;;;7.40;99.90;;;;;;5060931;28;20080;-74
2023/04/09 04:13:31;;;;;;;74.47;47.13;;;7.40;99.90;;;;;;5067045;28;20044;-74
2023/04/09 04:15:58;;;;;;;78.15;48.05;;;7.50;99.90;;;;;;5066577;28;20431;-75
2023/04/09 04:18:23;;;;;;;73.05;47.80;;;7.50;99.90;;;;;;5051053;28;20849;-75
2023/04/09 04:20:49;;;;;;;78.68;47.53;;;7.50;99.90;;;;;;5063923;28;20044;-75
2023/04/09 04:23:15;;;;;;;82.55;47.33;;;7.40;99.90;;;;;;5063936;28;20088;-75
2023/04/09 04:25:41;;;;;;;79.00;49.90;;;7.40;99.90;;;;;;5066178;28;20041;-75
2023/04/09 04:28:07;;;;;;;83.28;51.60;;;7.40;99.90;;;;;;5063429;28;20058;-74
2023/04/09 04:30:33;;;;;;;85.45;52.95;;;7.40;99.90;;;;;;5064835;28;20052;-75
2023/04/09 04:32:59;;;;;;;84.55;51.22;;;7.40;99.90;;;;;;5051600;28;20053;-74
2023/04/09 04:35:24;;;;;;;89.97;53.30;;;7.30;99.90;;;;;;5055471;28;20414;-75
2023/04/09 04:37:50;;;;;;;85.90;52.83;;;7.40;99.90;;;;;;5061917;28;20051;-74
2023/04/09 04:40:16;;;;;;;86.30;54.95;;;7.30;99.90;;;;;;5054846;28;20056;-74
2023/04/09 04:42:42;;;;;;;88.50;53.97;;;7.30;99.90;;;;;;5060967;28;20455;-73
2023/04/09 04:45:08;;;;;;;84.20;54.25;;;7.30;99.90;;;;;;5063474;28;20162;-73
2023/04/09 04:47:34;;;;;;;94.78;57.22;;;7.20;99.90;;;;;;5064766;28;20492;-73
2023/04/09 04:50:00;;;;;;;90.68;54.95;;;7.30;99.90;;;;;;5066024;28;20045;-73
2023/04/09 04:52:26;;;;;;;89.18;54.72;;;7.30;99.90;;;;;;5057185;28;20199;-73
2023/04/09 04:54:52;;;;;;;91.55;54.17;;;7.30;99.90;;;;;;5066790;28;20080;-74
2023/04/09 04:57:18;;;;;;;89.03;54.08;;;7.30;99.90;;;;;;5059260;28;20056;-75
2023/04/09 04:59:44;;;;;;;83.97;52.92;;;7.30;99.90;;;;;;5057299;28;20045;-74
2023/04/09 05:02:09;;;;;;;88.32;53.97;;;7.30;99.90;;;;;;5063548;28;20048;-75
2023/04/09 05:04:35;;;;;;;88.05;56.08;;;7.30;99.90;;;;;;5065919;28;20119;-75
2023/04/09 05:07:01;;;;;;;85.85;52.00;;;7.30;99.90;;;;;;5058200;28;20378;-75
2023/04/09 05:09:26;;;;;;;85.50;51.83;;;7.30;99.90;;;;;;5063986;28;20451;-75
2023/04/09 05:11:52;;;;;;;84.18;51.10;;;7.30;99.90;;;;;;5064034;28;20118;-74
2023/04/09 05:14:20;;;;;;;88.47;52.50;;;7.30;99.90;;;;;;5066208;28;20094;-75
2023/04/09 05:16:46;;;;;;;87.10;51.10;;;7.30;99.90;;;;;;5056355;28;20063;-74
2023/04/09 05:19:11;;;;;;;77.72;48.80;;;7.30;99.90;;;;;;5062816;28;20036;-73
2023/04/09 05:21:37;;;;;;;71.85;45.53;;;7.30;99.90;;;;;;5056869;28;20239;-73
2023/04/09 05:24:04;;;;;;;69.40;43.72;;;7.30;99.90;;;;;;5065260;28;20098;-74
2023/04/09 05:26:29;;;;;;;69.13;42.08;;;7.30;99.90;;;;;;5043814;28;20040;-74
2023/04/09 05:28:55;;;;;;;70.15;43.35;;;7.30;99.90;;;;;;5051581;28;20560;-74
2023/04/09 05:31:21;;;;;;;65.88;42.97;;;7.30;99.90;;;;;;5058626;28;20488;-73
2023/04/09 05:33:47;;;;;;;65.97;42.58;;;7.30;99.90;;;;;;5063557;28;20044;-74
2023/04/09 05:36:17;;;;;;;63.80;39.67;;;7.40;99.90;;;;;;5061520;28;20087;-73
2023/04/09 05:38:45;;;;;;;65.97;41.70;;;7.40;99.90;;;;;;5048520;28;20514;-74
2023/04/09 05:41:12;;;;;;;67.03;42.47;;;7.40;99.90;;;;;;5064342;28;20044;-74
2023/04/09 05:43:38;;;;;;;68.85;44.83;;;7.50;99.90;;;;;;5061001;28;20385;-73
2023/04/09 05:46:04;;;;;;;62.40;41.05;;;7.50;99.90;;;;;;5058506;28;20800;-74
2023/04/09 05:48:30;;;;;;;62.15;40.67;;;7.50;99.90;;;;;;5065672;28;20048;-74
2023/04/09 05:50:57;;;;;;;64.40;42.53;;;7.50;99.90;;;;;;5063388;28;20047;-73
2023/04/09 05:53:22;;;;;;;70.80;42.60;;;7.50;99.90;;;;;;5054322;28;20547;-74
2023/04/09 05:55:48;;;;;;;86.20;51.60;;;7.50;99.90;;;;;;5065804;28;20075;-74
2023/04/09 05:58:14;;;;;;;89.80;56.97;;;7.50;99.90;;;;;;5063546;28;20398;-74
2023/04/09 06:00:41;;;;;;;96.18;57.05;;;7.50;99.90;;;;;;5061480;28;20589;-73
2023/04/09 06:03:08;;;;;;;96.93;61.20;;;7.50;99.90;;;;;;5063721;28;20060;-75
2023/04/09 06:05:34;;;;;;;106.47;61.97;;;7.50;99.90;;;;;;5063421;28;20085;-75
2023/04/09 06:08:01;;;;;;;97.18;64.40;;;7.50;99.90;;;;;;5054923;28;20041;-75
2023/04/09 06:10:26;;;;;;;93.03;59.85;;;7.50;99.90;;;;;;5062876;28;20040;-75
2023/04/09 06:12:52;;;;;;;101.70;63.13;;;7.50;99.90;;;;;;5058448;28;20041;-75
2023/04/09 06:15:18;;;;;;;98.47;63.15;;;7.50;99.90;;;;;;5057981;28;20052;-75
2023/04/09 06:17:44;;;;;;;91.28;61.40;;;7.50;99.90;;;;;;5059907;28;20048;-75
2023/04/09 06:20:10;;;;;;;97.70;59.95;;;7.60;99.90;;;;;;5059633;28;20123;-74
2023/04/09 06:22:36;;;;;;;94.22;59.33;;;7.60;99.90;;;;;;5057464;28;20059;-74
2023/04/09 06:25:02;;;;;;;89.13;60.28;;;7.70;99.90;;;;;;5061261;28;20136;-74
2023/04/09 06:27:28;;;;;;;92.00;57.50;;;8.00;99.90;;;;;;5064219;28;20043;-74
2023/04/09 06:29:53;;;;;;;102.30;60.45;;;8.30;99.90;;;;;;5060933;28;20045;-74
2023/04/09 06:32:19;;;;;;;93.78;58.88;;;8.60;99.90;;;;;;5063128;28;20083;-74
2023/04/09 06:34:45;;;;;;;84.68;57.00;;;8.80;99.90;;;;;;5058944;28;20164;-74
2023/04/09 06:37:11;;;;;;;88.03;55.53;;;8.70;99.90;;;;;;5064126;28;20128;-74
2023/04/09 06:39:40;;;;;;;91.20;55.58;;;8.80;99.90;;;;;;5060394;28;20049;-74
2023/04/09 06:42:05;;;;;;;81.80;55.47;;;8.80;99.90;;;;;;5055838;28;20386;-75
2023/04/09 06:44:32;;;;;;;87.90;53.70;;;8.90;99.90;;;;;;5057794;28;20063;-75
2023/04/09 06:46:58;;;;;;;74.47;52.80;;;8.90;99.90;;;;;;5052803;28;20033;-75
2023/04/09 06:49:24;;;;;;;84.43;54.88;;;9.00;99.90;;;;;;5063163;28;20033;-75
2023/04/09 06:51:52;;;;;;;83.00;54.10;;;9.00;99.90;;;;;;5064860;28;20725;-75
2023/04/09 06:54:18;;;;;;;74.55;48.72;;;9.10;99.90;;;;;;5056319;28;20161;-75
2023/04/09 06:56:44;;;;;;;88.43;56.22;;;9.10;99.90;;;;;;5061858;28;20055;-75
2023/04/09 06:59:10;;;;;;;83.70;50.88;;;9.00;99.90;;;;;;5057992;28;20048;-75
2023/04/09 07:01:36;;;;;;;79.43;50.80;;;9.10;99.90;;;;;;5066696;28;20127;-75
2023/04/09 07:04:02;;;;;;;76.03;50.50;;;9.10;99.90;;;;;;5063542;28;20103;-75
2023/04/09 07:06:28;;;;;;;75.82;50.95;;;9.10;99.90;;;;;;5061199;28;20507;-75
2023/04/09 07:08:54;;;;;;;79.20;50.33;;;9.10;99.90;;;;;;5068498;28;20081;-75
2023/04/09 07:11:20;;;;;;;77.78;46.17;;;9.20;99.90;;;;;;5063954;28;20485;-75
2023/04/09 07:13:46;;;;;;;84.18;52.30;;;9.20;99.90;;;;;;5066570;28;20504;-75
2023/04/09 07:16:11;;;;;;;72.53;47.50;;;9.30;99.90;;;;;;5059168;28;20045;-75
2023/04/09 07:18:37;;;;;;;69.50;46.63;;;9.30;99.90;;;;;;5063591;28;20040;-75
2023/04/09 07:21:02;;;;;;;69.03;46.22;;;9.40;99.90;;;;;;5060844;28;20522;-75
2023/04/09 07:23:28;;;;;;;69.63;44.55;;;9.50;99.90;;;;;;5059317;28;20055;-75
2023/04/09 07:25:54;;;;;;;67.75;44.38;;;9.60;99.90;;;;;;5057254;28;20114;-75
2023/04/09 07:28:20;;;;;;;68.43;45.72;;;9.60;99.90;;;;;;5063283;28;20482;-75
2023/04/09 07:30:46;;;;;;;71.68;48.33;;;9.70;99.90;;;;;;5062480;28;20056;-75
2023/04/09 07:33:12;;;;;;;68.32;45.22;;;9.80;99.90;;;;;;5057956;28;20820;-76
2023/04/09 07:35:38;;;;;;;67.45;44.67;;;9.90;99.90;;;;;;5057366;28;20040;-76
2023/04/09 07:38:04;;;;;;;69.68;45.75;;;10.10;99.90;;;;;;5054005;28;20122;-76
2023/04/09 07:40:30;;;;;;;66.03;44.53;;;10.20;99.90;;;;;;5066046;28;20040;-76
2023/04/09 07:42:56;;;;;;;73.50;44.55;;;10.30;99.90;;;;;;5064799;28;20047;-76
2023/04/09 07:45:23;;;;;;;63.83;43.80;;;10.40;99.90;;;;;;5062671;28;20048;-76
2023/04/09 07:47:49;;;;;;;75.18;44.83;;;10.40;99.90;;;;;;5058110;28;20049;-76
2023/04/09 07:50:15;;;;;;;68.97;45.03;;;10.30;99.90;;;;;;5065307;28;20098;-76
2023/04/09 07:52:41;;;;;;;64.85;44.75;;;10.30;99.90;;;;;;5059510;28;20450;-76
2023/04/09 07:55:07;;;;;;;72.25;44.78;;;10.30;99.90;;;;;;5060911;28;20049;-76
2023/04/09 07:57:33;;;;;;;72.53;43.08;;;10.30;99.90;;;;;;5063839;28;20425;-76
2023/04/09 07:59:58;;;;;;;71.18;44.80;;;10.40;99.90;;;;;;5068045;28;20043;-75
2023/04/09 08:02:25;;;;;;;67.43;44.53;;;10.60;99.90;;;;;;5067118;28;20055;-76
2023/04/09 08:04:51;;;;;;;68.82;46.35;;;10.70;99.90;;;;;;5065495;28;20074;-76
2023/04/09 08:07:16;;;;;;;67.20;45.72;;;10.60;99.90;;;;;;5067915;28;20044;-76
2023/04/09 08:09:42;;;;;;;74.22;49.08;;;10.70;99.90;;;;;;5070155;28;20415;-77
2023/04/09 08:12:08;;;;;;;70.72;47.35;;;10.70;99.90;;;;;;5061693;28;20760;-76
2023/04/09 08:14:33;;;;;;;80.28;48.65;;;10.70;99.90;;;;;;5067313;28;20053;-76
2023/04/09 08:17:00;;;;;;;74.88;48.35;;;10.70;99.90;;;;;;5063540;28;20150;-76
2023/04/09 08:19:26;;;;;;;72.75;48.10;;;10.80;99.90;;;;;;5060276;28;20501;-77
2023/04/09 08:21:51;;;;;;;76.68;50.00;;;10.90;99.90;;;;;;5067618;28;20085;-76
2023/04/09 08:24:17;;;;;;;77.55;51.95;;;10.90;99.90;;;;;;5068772;28;20063;-76
2023/04/09 08:26:43;;;;;;;77.40;48.70;;;10.90;99.90;;;;;;5063763;28;20409;-76
2023/04/09 08:29:11;;;;;;;84.13;51.58;;;11.00;99.90;;;;;;5062397;28;20044;-76
2023/04/09 08:31:37;;;;;;;73.93;52.03;;;11.20;99.90;;;;;;5062219;28;20051;-77
2023/04/09 08:34:03;;;;;;;79.60;51.35;;;11.40;99.90;;;;;;5064214;28;20106;-76
2023/04/09 08:36:28;;;;;;;82.50;54.17;;;11.50;99.90;;;;;;5067480;28;20044;-77
2023/04/09 08:38:55;;;;;;;73.63;50.28;;;11.30;99.90;;;;;;5066528;28;20497;-76
2023/04/09 08:41:25;;;;;;;77.53;49.88;;;11.30;99.90;;;;;;5064076;28;20044;-76
2023/04/09 08:43:52;;;;;;;79.32;55.42;;;11.40;99.90;;;;;;5064737;28;20048;-77
2023/04/09 08:46:21;;;;;;;77.97;53.28;;;11.50;99.90;;;;;;5057802;28;20088;-77
2023/04/09 08:48:49;;;;;;;77.38;52.05;;;11.30;99.90;;;;;;5064221;28;20131;-77
2023/04/09 08:51:20;;;;;;;85.15;54.50;;;11.40;99.90;;;;;;5059548;28;20044;-76
2023/04/09 08:53:55;;;;;;;79.82;54.03;;;11.30;99.90;;;;;;5066243;28;20448;-76
2023/04/09 08:56:21;;;;;;;73.90;51.00;;;11.50;99.90;;;;;;5059475;28;20058;-76
2023/04/09 08:58:46;;;;;;;77.45;51.92;;;11.60;99.90;;;;;;5064787;28;20544;-76
2023/04/09 09:01:20;;;;;;;77.28;52.13;;;11.60;99.90;;;;;;5055982;28;20090;-76
2023/04/09 09:03:57;;;;;;;73.70;52.60;;;11.80;99.90;;;;;;5063875;28;20493;-76
2023/04/09 09:06:26;;;;;;;72.55;49.08;;;11.80;99.90;;;;;;5058907;28;20045;-76
2023/04/09 09:09:06;;;;;;;70.43;51.10;;;11.80;99.90;;;;;;5066749;28;20102;-75
2023/04/09 09:11:36;;;;;;;77.70;51.03;;;11.80;99.90;;;;;;5062609;28;20056;-76
2023/04/09 09:14:04;;;;;;;68.57;51.10;;;11.90;99.90;;;;;;5057604;28;20044;-75
2023/04/09 09:16:33;;;;;;;72.13;51.58;;;11.90;99.90;;;;;;5061954;28;20048;-76
2023/04/09 09:19:00;;;;;;;66.72;46.58;;;12.00;99.90;;;;;;5062543;28;20056;-76
2023/04/09 09:21:27;;;;;;;68.68;46.40;;;12.10;99.90;;;;;;5059308;28;20036;-75
2023/04/09 09:23:53;;;;;;;68.63;45.38;;;12.20;99.90;;;;;;5059449;28;20047;-76
2023/04/09 09:26:29;;;;;;;59.25;41.45;;;12.40;99.90;;;;;;5062592;28;20124;-76
2023/04/09 09:28:59;;;;;;;60.75;42.17;;;12.60;99.90;;;;;;5058139;28;20045;-76
2023/04/09 09:31:25;;;;;;;62.17;42.13;;;12.70;99.90;;;;;;5055172;28;20105;-76
2023/04/09 09:33:51;;;;;;;68.38;45.92;;;12.80;99.90;;;;;;5049978;28;20090;-76
2023/04/09 09:36:33;;;;;;;65.15;42.53;;;12.80;99.90;;;;;;5058946;28;20048;-76
2023/04/09 09:39:08;;;;;;;58.67;40.38;;;12.80;99.90;;;;;;5060338;28;20119;-76
2023/04/09 09:41:35;;;;;;;60.20;40.17;;;12.90;99.90;;;;;;5059624;28;20041;-76
2023/04/09 09:44:03;;;;;;;55.80;39.95;;;13.20;99.90;;;;;;5066713;28;20102;-76
2023/04/09 09:46:33;;;;;;;59.80;38.53;;;13.40;99.90;;;;;;5060260;28;20102;-76
2023/04/09 09:48:58;;;;;;;57.42;40.38;;;13.60;99.90;;;;;;5062548;28;20056;-76
2023/04/09 09:51:28;;;;;;;55.70;38.53;;;13.70;99.90;;;;;;5065248;28;20702;-76
2023/04/09 09:53:56;;;;;;;62.05;43.75;;;13.80;99.90;;;;;;5066386;28;20094;-76
2023/04/09 09:56:24;;;;;;;59.20;42.95;;;13.70;99.90;;;;;;5059084;28;20567;-76
2023/04/09 09:58:58;;;;;;;;;;;13.70;99.90;;;;;;5048915;28;20124;-76
2023/04/09 10:01:26;;;;;;;55.20;39.78;;;13.70;99.90;;;;;;5057833;28;20023;-76
2023/04/09 10:03:55;;;;;;;63.25;41.83;;;13.70;99.90;;;;;;5065274;28;20531;-76
2023/04/09 10:06:21;;;;;;;56.38;39.83;;;13.80;99.90;;;;;;5064415;28;20070;-76
2023/04/09 10:08:48;;;;;;;63.95;41.65;;;13.80;99.90;;;;;;5065412;28;20045;-76
2023/04/09 10:11:13;;;;;;;55.28;38.72;;;14.00;99.90;;;;;;5048048;28;20068;-76
2023/04/09 10:13:45;;;;;;;57.03;39.03;;;14.10;99.90;;;;;;5058594;28;20124;-76
2023/04/09 10:16:11;;;;;;;56.17;41.70;;;14.40;99.90;;;;;;5060968;28;20715;-76
2023/04/09 10:18:37;;;;;;;53.42;39.35;;;14.60;99.90;;;;;;5048559;28;20044;-76
2023/04/09 10:21:16;;;;;;;53.45;37.45;;;14.80;99.90;;;;;;5066278;28;20048;-76
2023/04/09 10:23:44;;;;;;;57.92;39.65;;;14.90;99.90;;;;;;5064661;28;20128;-76
2023/04/09 10:26:10;;;;;;;51.22;39.13;;;14.90;99.90;;;;;;5055910;28;20521;-76
2023/04/09 10:28:39;;;;;;;54.70;38.55;;;14.90;99.90;;;;;;5061030;28;20492;-76
2023/04/09 10:31:06;;;;;;;55.03;41.17;;;14.90;99.90;;;;;;5063982;28;20057;-76
2023/04/09 10:33:34;;;;;;;57.20;41.15;;;15.00;99.90;;;;;;5057705;28;20513;-76
2023/04/09 10:36:11;;;;;;;62.40;44.13;;;15.00;99.90;;;;;;5064810;28;20114;-76
2023/04/09 10:38:45;;;;;;;64.20;43.17;;;15.00;99.90;;;;;;5062839;28;20493;-76
2023/04/09 10:41:21;;;;;;;61.60;44.08;;;14.90;99.90;;;;;;5066208;28;20052;-76
2023/04/09 10:43:48;;;;;;;59.33;40.80;;;15.00;99.90;;;;;;5043984;28;20044;-76
2023/04/09 10:46:33;;;;;;;61.53;43.15;;;15.20;99.90;;;;;;5057010;28;20041;-76
2023/04/09 10:49:15;;;;;;;66.70;44.65;;;15.20;99.90;;;;;;5054092;28;20114;-76
2023/04/09 10:51:46;;;;;;;59.80;43.58;;;15.00;99.90;;;;;;5060998;28;20048;-76
2023/04/09 10:54:37;;;;;;;60.08;42.15;;;14.90;99.90;;;;;;5064786;28;20053;-76
2023/04/09 10:57:12;;;;;;;60.65;40.95;;;15.00;99.90;;;;;;5062069;28;20068;-76
2023/04/09 10:59:44;;;;;;;55.80;40.45;;;15.20;99.90;;;;;;5063352;28;20437;-77
2023/04/09 11:02:38;;;;;;;64.35;45.78;;;15.30;99.90;;;;;;5067190;28;20132;-77
2023/04/09 11:05:23;;;;;;;57.20;40.72;;;15.20;99.90;;;;;;5066050;28;20121;-76
2023/04/09 11:08:08;;;;;;;54.47;41.67;;;15.30;99.90;;;;;;5064460;28;20048;-77
2023/04/09 11:10:34;;;;;;;58.45;44.25;;;15.40;99.90;;;;;;5061357;28;20048;-76
2023/04/09 11:13:01;;;;;;;60.38;42.75;;;15.50;99.90;;;;;;5064716;28;20110;-75
2023/04/09 11:15:28;;;;;;;53.25;39.72;;;15.50;99.90;;;;;;5066844;28;20075;-76
2023/04/09 11:17:54;;;;;;;54.88;40.00;;;15.70;99.90;;;;;;5065354;28;20040;-77
2023/04/09 11:20:22;;;;;;;65.03;43.08;;;15.90;99.90;;;;;;5065789;28;20080;-77
2023/04/09 11:22:53;;;;;;;55.85;39.63;;;15.90;99.90;;;;;;5065350;28;20056;-76
2023/04/09 11:25:24;;;;;;;54.50;36.92;;;16.00;99.90;;;;;;5059994;28;20071;-76
2023/04/09 11:27:50;;;;;;;51.95;37.58;;;16.00;99.90;;;;;;5064520;28;20122;-76
2023/04/09 11:30:16;;;;;;;51.28;36.78;;;16.00;99.90;;;;;;5062011;28;20037;-75
2023/04/09 11:32:42;;;;;;;55.25;39.58;;;16.20;99.90;;;;;;5066106;28;20090;-76
2023/04/09 11:35:18;;;;;;;52.70;37.53;;;16.20;99.90;;;;;;5066688;28;20072;-77
2023/04/09 11:37:45;;;;;;;52.70;39.28;;;16.10;99.90;;;;;;5057800;28;20403;-77
2023/04/09 11:40:15;;;;;;;43.65;33.90;;;16.20;99.90;;;;;;5063130;28;20604;-76
2023/04/09 11:42:42;;;;;;;52.05;37.58;;;16.20;99.90;;;;;;5068466;28;20401;-77
2023/04/09 11:45:10;;;;;;;42.92;31.90;;;16.10;99.90;;;;;;5068077;28;20102;-77
2023/04/09 11:47:36;;;;;;;44.63;34.33;;;16.00;99.90;;;;;;5060216;28;20830;-76
2023/04/09 11:50:02;;;;;;;47.30;34.78;;;16.00;99.90;;;;;;5061116;28;20057;-76
2023/04/09 11:52:29;;;;;;;47.50;35.35;;;15.70;99.90;;;;;;5062646;28;20131;-75
2023/04/09 11:55:00;;;;;;;49.65;36.55;;;15.30;99.90;;;;;;5054053;28;20091;-75
2023/04/09 11:57:45;;;;;;;41.88;33.72;;;15.10;99.90;;;;;;5062362;28;20049;-74
2023/04/09 12:00:15;;;;;;;46.80;33.28;;;15.10;99.90;;;;;;5064173;28;20037;-75
2023/04/09 12:02:46;;;;;;;48.63;33.75;;;15.20;99.90;;;;;;5061719;28;20056;-75
2023/04/09 12:05:24;;;;;;;42.90;32.92;;;15.10;99.90;;;;;;5055527;28;20132;-75
2023/04/09 12:07:50;;;;;;;48.20;33.53;;;15.10;99.90;;;;;;5057143;28;20052;-76
2023/04/09 12:10:17;;;;;;;41.25;30.80;;;15.10;99.90;;;;;;5062101;28;20059;-77
2023/04/09 12:12:44;;;;;;;43.42;30.45;;;15.20;99.90;;;;;;5061754;28;20121;-77
2023/04/09 12:15:19;;;;;;;45.05;29.95;;;15.20;99.90;;;;;;5065359;28;20056;-76
2023/04/09 12:17:54;;;;;;;40.17;29.55;;;15.20;99.90;;;;;;5059913;28;20048;-76
2023/04/09 12:20:34;;;;;;;47.00;33.75;;;15.40;94.90;;;;;;5059113;28;20064;-76
2023/04/09 12:23:02;;;;;;;41.03;31.20;;;15.30;99.90;;;;;;5059854;28;20053;-76
2023/04/09 12:25:29;;;;;;;41.58;29.65;;;15.30;99.90;;;;;;5054101;28;20041;-75
2023/04/09 12:27:55;;;;;;;42.58;31.83;;;15.40;97.40;;;;;;5066137;28;20080;-76
2023/04/09 12:30:21;;;;;;;46.88;32.83;;;15.50;98.90;;;;;;5052802;28;20055;-76
2023/04/09 12:32:47;;;;;;;42.17;29.70;;;15.50;99.40;;;;;;5060839;28;20060;-76
2023/04/09 12:35:14;;;;;;;42.05;29.85;;;15.60;99.30;;;;;;5065655;28;20049;-77
2023/04/09 12:37:41;;;;;;;36.33;27.17;;;15.60;95.50;;;;;;5042353;28;20120;-77